Time;durP1;ratioP1;P1;durP2;ratioP2;P2;SDS_P1;SDS_P2;PMS_P1;PMS_P2;Temp;Humidity;BMP_temperature;BMP_pressure;BME280_temperature;BME280_humidity;BME280_pressure;Samples;Min_cycle;Max_cycle;Signal;HPM_P1;HPM_P2
2023/07/11 00:00:53;;;;;;;1.67;0.90;;;25.10;60.60;;;;;;5070819;28;20047;-85
2023/07/11 00:03:20;;;;;;;0.68;0.57;;;25.00;60.60;;;;;;5054644;28;20036;-85
2023/07/11 00:06:18;;;;;;;2.05;1.23;;;25.00;60.40;;;;;;5071007;28;20201;-83
2023/07/11 00:08:44;;;;;;;0.40;0.40;;;25.00;59.90;;;;;;5072820;28;20029;-85
2023/07/11 00:11:11;;;;;;;1.67;0.98;;;25.00;59.90;;;;;;5070931;28;20123;-84
2023/07/11 00:13:39;;;;;;;3.50;0.80;;;25.00;60.30;;;;;;5071405;28;20024;-85
2023/07/11 00:16:09;;;;;;;0.68;0.60;;;24.90;59.70;;;;;;5070863;28;20033;-82
2023/07/11 00:18:36;;;;;;;0.95;0.50;;;24.80;60.30;;;;;;5054829;28;20538;-85
2023/07/11 00:21:03;;;;;;;0.40;0.40;;;24.80;60.70;;;;;;5054367;28;20158;-85
2023/07/11 00:23:30;;;;;;;2.55;1.67;;;24.70;60.50;;;;;;5071776;28;20095;-83
2023/07/11 00:25:56;;;;;;;0.95;0.60;;;24.70;60.70;;;;;;5073939;28;20115;-82
2023/07/11 00:28:23;;;;;;;2.22;0.85;;;24.70;60.80;;;;;;5058059;28;20079;-84
2023/07/11 00:30:49;;;;;;;1.38;0.93;;;24.70;60.80;;;;;;5074403;28;20029;-85
2023/07/11 00:33:16;;;;;;;0.47;0.47;;;24.70;61.00;;;;;;5074727;28;20036;-84
2023/07/11 00:36:01;;;;;;;1.83;0.85;;;24.60;60.50;;;;;;5074323;28;20036;-85
2023/07/11 00:38:27;;;;;;;0.85;0.57;;;24.70;60.60;;;;;;5074323;28;20044;-82
2023/07/11 00:40:53;;;;;;;1.27;0.80;;;24.70;60.80;;;;;;5074228;28;20039;-82
2023/07/11 00:43:21;;;;;;;1.02;0.82;;;24.70;60.90;;;;;;5074543;28;20050;-85
2023/07/11 00:46:25;;;;;;;0.20;0.20;;;24.60;60.70;;;;;;5057057;28;20063;-85
2023/07/11 00:49:14;;;;;;;0.85;0.70;;;24.70;60.80;;;;;;5075383;28;20115;-85
2023/07/11 00:52:00;;;;;;;0.90;0.60;;;24.60;60.50;;;;;;5074369;28;20050;-81
2023/07/11 00:54:31;;;;;;;1.45;0.90;;;24.60;60.50;;;;;;5074251;28;20067;-84
2023/07/11 00:57:01;;;;;;;0.70;0.63;;;24.60;60.60;;;;;;5073753;28;20040;-82
2023/07/11 00:59:27;;;;;;;1.90;1.27;;;24.50;60.80;;;;;;5074173;28;20031;-82
2023/07/11 01:02:33;;;;;;;0.88;0.55;;;24.50;61.00;;;;;;5073630;28;20039;-84
2023/07/11 01:04:59;;;;;;;0.82;0.73;;;24.50;60.90;;;;;;5074047;28;20037;-84
2023/07/11 01:07:33;;;;;;;0.57;0.52;;;24.40;60.60;;;;;;5073210;28;20033;-81
2023/07/11 01:09:59;;;;;;;1.65;0.80;;;24.40;61.30;;;;;;5057225;28;20032;-84
2023/07/11 01:12:25;;;;;;;1.05;0.93;;;24.40;61.30;;;;;;5073080;28;20036;-82
2023/07/11 01:14:52;;;;;;;1.30;0.68;;;24.40;61.60;;;;;;5073881;28;20044;-82
2023/07/11 01:17:38;;;;;;;1.25;0.93;;;24.30;61.80;;;;;;5073225;28;20382;-84
2023/07/11 01:20:23;;;;;;;2.20;0.90;;;24.30;61.10;;;;;;5073745;28;20037;-84
2023/07/11 01:22:52;;;;;;;1.02;0.68;;;24.20;62.10;;;;;;5056736;28;20032;-82
2023/07/11 01:25:18;;;;;;;1.00;0.70;;;24.20;62.00;;;;;;5073399;28;20115;-84
2023/07/11 01:27:47;;;;;;;0.75;0.73;;;24.20;62.10;;;;;;5073397;28;20052;-83
2023/07/11 01:30:20;;;;;;;1.65;1.13;;;24.10;61.90;;;;;;5073442;28;20412;-84
2023/07/11 01:32:47;;;;;;;1.20;0.80;;;24.10;62.20;;;;;;5056561;28;20063;-82
2023/07/11 01:35:15;;;;;;;1.63;1.13;;;24.10;62.30;;;;;;5056497;28;20098;-83
2023/07/11 01:37:41;;;;;;;0.52;0.52;;;24.00;62.20;;;;;;5073643;28;20021;-84
2023/07/11 01:40:08;;;;;;;1.13;0.75;;;24.00;62.20;;;;;;5073169;28;20033;-84
2023/07/11 01:42:35;;;;;;;2.63;1.88;;;24.00;61.50;;;;;;5074534;28;20416;-82
2023/07/11 01:45:02;;;;;;;2.85;1.42;;;23.90;61.50;;;;;;5056611;28;20044;-84
2023/07/11 01:47:28;;;;;;;1.20;0.90;;;23.90;62.30;;;;;;5056065;28;20028;-84
2023/07/11 01:49:54;;;;;;;1.27;0.70;;;23.90;62.10;;;;;;5073058;28;20040;-84
2023/07/11 01:52:22;;;;;;;;;;;23.90;62.30;;;;;;5073135;28;20032;-84
2023/07/11 01:54:50;;;;;;;1.75;0.93;;;23.80;61.80;;;;;;5056634;28;20304;-85
2023/07/11 01:57:17;;;;;;;2.17;0.85;;;23.80;62.20;;;;;;5072677;28;20037;-83
2023/07/11 01:59:44;;;;;;;2.25;0.90;;;23.70;62.40;;;;;;5056481;28;20037;-81
2023/07/11 02:02:11;;;;;;;0.85;0.50;;;23.70;62.50;;;;;;5073787;28;20027;-84
2023/07/11 02:04:38;;;;;;;0.60;0.52;;;23.60;62.30;;;;;;5073206;28;20036;-84
2023/07/11 02:07:05;;;;;;;1.08;0.80;;;23.60;62.20;;;;;;5073609;28;20079;-82
2023/07/11 02:09:32;;;;;;;0.60;0.40;;;23.60;62.20;;;;;;5074107;28;20055;-82
2023/07/11 02:11:58;;;;;;;2.88;1.90;;;23.50;62.60;;;;;;5072182;28;20082;-84
2023/07/11 02:14:24;;;;;;;0.85;0.68;;;23.60;62.50;;;;;;5056224;28;20029;-83
2023/07/11 02:16:52;;;;;;;0.77;0.65;;;23.60;62.50;;;;;;5055384;28;20082;-82
2023/07/11 02:19:22;;;;;;;0.45;0.45;;;23.50;62.50;;;;;;5072883;28;20058;-82
2023/07/11 02:21:49;;;;;;;0.85;0.65;;;23.50;62.70;;;;;;5071786;28;20051;-83
2023/07/11 02:24:17;;;;;;;2.80;1.50;;;23.50;62.60;;;;;;5072530;28;20408;-83
2023/07/11 02:26:43;;;;;;;0.90;0.52;;;23.50;62.80;;;;;;5071452;28;20056;-81
2023/07/11 02:29:10;;;;;;;1.60;1.20;;;23.50;63.00;;;;;;5072345;28;20033;-82
2023/07/11 02:31:37;;;;;;;1.17;0.70;;;23.40;62.80;;;;;;5055254;28;20033;-82
2023/07/11 02:34:05;;;;;;;1.98;1.02;;;23.40;62.90;;;;;;5055600;28;20031;-81
2023/07/11 02:36:32;;;;;;;0.88;0.40;;;23.40;63.00;;;;;;5071862;28;20102;-83
2023/07/11 02:38:58;;;;;;;0.65;0.52;;;23.40;63.00;;;;;;5055496;28;20062;-84
2023/07/11 02:41:25;;;;;;;0.88;0.75;;;23.30;63.10;;;;;;5071857;28;20123;-82
2023/07/11 02:43:51;;;;;;;1.27;0.90;;;23.30;63.20;;;;;;5055346;28;20507;-81
2023/07/11 02:46:17;;;;;;;0.55;0.55;;;23.30;63.30;;;;;;5054388;28;20037;-83
2023/07/11 02:48:44;;;;;;;1.08;0.80;;;23.30;63.30;;;;;;5054923;28;20035;-82
2023/07/11 02:51:11;;;;;;;1.00;0.50;;;23.20;63.10;;;;;;5054704;28;20127;-81
2023/07/11 02:53:37;;;;;;;1.42;0.90;;;23.20;63.30;;;;;;5071903;28;20024;-82
2023/07/11 02:56:04;;;;;;;0.77;0.70;;;23.20;62.90;;;;;;5054590;28;20520;-81
2023/07/11 02:58:30;;;;;;;1.58;0.65;;;23.20;63.60;;;;;;5071866;28;20029;-83
2023/07/11 03:01:00;;;;;;;;;;;23.20;63.70;;;;;;5071933;28;20049;-80
2023/07/11 03:03:27;;;;;;;0.52;0.52;;;23.20;63.40;;;;;;5054987;28;19959;-81
2023/07/11 03:05:54;;;;;;;1.15;0.98;;;23.10;63.40;;;;;;5071455;28;20043;-81
2023/07/11 03:08:20;;;;;;;2.90;0.88;;;23.10;63.80;;;;;;5071644;28;20086;-81
2023/07/11 03:10:46;;;;;;;;;;;23.00;64.10;;;;;;5055218;28;20117;-81
2023/07/11 03:13:12;;;;;;;0.75;0.60;;;23.00;63.80;;;;;;5054909;28;19999;-80
2023/07/11 03:15:39;;;;;;;0.80;0.80;;;22.90;63.70;;;;;;5071387;28;20051;-80
2023/07/11 03:18:07;;;;;;;1.73;0.77;;;23.00;63.20;;;;;;5071237;28;20083;-81
2023/07/11 03:20:52;;;;;;;1.15;0.80;;;22.90;63.50;;;;;;5071412;28;20064;-82
2023/07/11 03:23:20;;;;;;;0.93;0.73;;;22.90;63.80;;;;;;5071346;28;20044;-81
2023/07/11 03:25:46;;;;;;;0.80;0.70;;;22.80;63.80;;;;;;5071209;28;20140;-80
2023/07/11 03:28:12;;;;;;;1.42;0.60;;;22.70;64.20;;;;;;5071308;28;20055;-80
2023/07/11 03:30:38;;;;;;;1.30;0.75;;;22.60;63.60;;;;;;5072565;28;20044;-81
2023/07/11 03:33:04;;;;;;;;;;;22.60;64.30;;;;;;5071724;28;20028;-82
2023/07/11 03:35:31;;;;;;;1.13;0.43;;;22.50;64.60;;;;;;5071065;28;20387;-82
2023/07/11 03:37:57;;;;;;;1.90;1.05;;;22.50;64.30;;;;;;5071036;28;20032;-82
2023/07/11 03:40:24;;;;;;;;;;;22.50;64.60;;;;;;5071553;28;20040;-80
2023/07/11 03:42:50;;;;;;;1.13;0.80;;;22.40;64.50;;;;;;5054507;28;19935;-80
2023/07/11 03:45:16;;;;;;;1.10;0.77;;;22.40;64.70;;;;;;5053971;28;20048;-81
2023/07/11 03:47:42;;;;;;;1.30;1.05;;;22.40;64.70;;;;;;5070945;28;20082;-81
2023/07/11 03:50:08;;;;;;;;;;;22.40;64.80;;;;;;5071375;28;20036;-80
2023/07/11 03:52:35;;;;;;;1.13;0.60;;;22.40;64.60;;;;;;5054357;28;20331;-80
2023/07/11 03:55:01;;;;;;;1.15;1.00;;;22.40;64.90;;;;;;5071196;28;20045;-81
2023/07/11 03:57:27;;;;;;;1.48;0.82;;;22.40;64.80;;;;;;5053948;28;20040;-82
2023/07/11 03:59:53;;;;;;;;;;;22.50;64.80;;;;;;5074109;28;20032;-82
2023/07/11 04:02:19;;;;;;;2.80;0.98;;;22.50;64.60;;;;;;5074365;28;19921;-82
2023/07/11 04:04:45;;;;;;;1.70;0.98;;;22.60;64.60;;;;;;5058474;28;20045;-82
2023/07/11 04:07:11;;;;;;;2.47;1.17;;;22.50;64.80;;;;;;5057762;28;20032;-82
2023/07/11 04:09:40;;;;;;;1.48;0.55;;;22.60;64.60;;;;;;5058349;28;20527;-83
2023/07/11 04:12:07;;;;;;;1.08;0.77;;;22.70;64.40;;;;;;5075335;28;20028;-83
2023/07/11 04:14:33;;;;;;;0.93;0.73;;;22.70;63.90;;;;;;5074941;28;20031;-83
2023/07/11 04:16:59;;;;;;;1.35;1.02;;;22.80;64.30;;;;;;5074237;28;20059;-83
2023/07/11 04:19:25;;;;;;;2.75;1.52;;;22.80;64.20;;;;;;5074802;28;20024;-83
2023/07/11 04:21:51;;;;;;;;;;;22.90;64.30;;;;;;5074792;28;20370;-82
2023/07/11 04:24:17;;;;;;;4.72;2.63;;;22.90;64.10;;;;;;5074934;28;19963;-83
2023/07/11 04:26:43;;;;;;;;;;;22.90;64.10;;;;;;5074627;28;20052;-82
2023/07/11 04:29:09;;;;;;;1.42;0.80;;;23.00;63.90;;;;;;5074633;28;19913;-83
2023/07/11 04:31:35;;;;;;;1.92;1.40;;;23.00;64.00;;;;;;5056633;28;20036;-82
2023/07/11 04:34:01;;;;;;;;;;;23.10;64.20;;;;;;5075023;28;20028;-83
2023/07/11 04:36:27;;;;;;;0.68;0.68;;;23.10;64.20;;;;;;5074320;28;19927;-83
2023/07/11 04:38:53;;;;;;;;;;;23.10;64.30;;;;;;5074942;28;20062;-83
2023/07/11 04:41:19;;;;;;;1.13;0.90;;;23.10;63.90;;;;;;5057087;28;19924;-83
2023/07/11 04:43:45;;;;;;;;;;;23.10;64.50;;;;;;5075019;28;20033;-82
2023/07/11 04:46:11;;;;;;;2.17;1.23;;;23.20;64.70;;;;;;5057476;28;20418;-83
2023/07/11 04:48:37;;;;;;;;;;;23.20;64.50;;;;;;5076030;28;20419;-82
2023/07/11 04:51:07;;;;;;;2.00;0.90;;;23.30;64.80;;;;;;5057296;28;19970;-83
2023/07/11 04:53:34;;;;;;;1.10;0.70;;;23.30;64.60;;;;;;5074072;28;20071;-81
2023/07/11 04:56:06;;;;;;;0.85;0.80;;;23.30;64.60;;;;;;5057047;28;20440;-84
2023/07/11 04:58:34;;;;;;;2.35;1.33;;;23.40;65.10;;;;;;5057286;28;20040;-82
2023/07/11 05:01:20;;;;;;;1.30;0.85;;;23.40;64.70;;;;;;5073758;28;20528;-82
2023/07/11 05:03:49;;;;;;;4.05;1.40;;;23.60;64.70;;;;;;5057530;28;20021;-83
2023/07/11 05:06:15;;;;;;;1.27;0.65;;;23.60;65.30;;;;;;5073608;28;20033;-84
2023/07/11 05:08:41;;;;;;;;;;;23.60;66.20;;;;;;5057746;28;20036;-83
2023/07/11 05:11:29;;;;;;;0.90;0.63;;;23.60;66.60;;;;;;5056415;28;20005;-82
2023/07/11 05:13:55;;;;;;;0.30;0.30;;;23.60;66.20;;;;;;5075046;28;20401;-84
2023/07/11 05:16:24;;;;;;;;;;;23.60;66.40;;;;;;5074323;28;20064;-84
2023/07/11 05:18:51;;;;;;;1.25;0.77;;;23.70;66.00;;;;;;5057391;28;20444;-84
2023/07/11 05:21:19;;;;;;;1.17;0.82;;;23.80;65.90;;;;;;5073457;28;20101;-82
2023/07/11 05:23:45;;;;;;;0.88;0.65;;;23.90;65.80;;;;;;5056934;28;20033;-82
2023/07/11 05:26:12;;;;;;;1.70;0.90;;;24.00;65.70;;;;;;5073254;28;20056;-85
2023/07/11 05:28:38;;;;;;;0.65;0.52;;;24.00;65.40;;;;;;5073558;28;20480;-85
2023/07/11 05:31:06;;;;;;;0.93;0.93;;;24.20;65.30;;;;;;5073419;28;20601;-85
2023/07/11 05:33:33;;;;;;;1.13;0.70;;;24.20;65.70;;;;;;5074004;28;20020;-85
2023/07/11 05:38:52;;;;;;;1.88;0.93;;;24.30;66.60;;;;;;5074837;28;20033;-82
2023/07/11 05:41:19;;;;;;;1.95;1.30;;;24.40;66.00;;;;;;5073105;28;20384;-84
2023/07/11 05:43:45;;;;;;;1.17;0.85;;;24.40;68.40;;;;;;5073409;28;20326;-82
2023/07/11 05:46:12;;;;;;;2.58;1.95;;;24.40;69.60;;;;;;5072950;28;20040;-86
2023/07/11 05:48:38;;;;;;;1.20;0.90;;;24.40;69.50;;;;;;5056931;28;20036;-84
2023/07/11 05:51:25;;;;;;;0.90;0.55;;;24.50;69.10;;;;;;5056155;28;20040;-84
2023/07/11 05:53:51;;;;;;;0.68;0.57;;;24.60;68.70;;;;;;5073651;28;20036;-86
2023/07/11 05:56:19;;;;;;;2.45;1.58;;;24.70;67.70;;;;;;5074438;28;20044;-85
2023/07/11 05:58:47;;;;;;;2.30;1.25;;;24.70;68.50;;;;;;5074351;28;20032;-86
2023/07/11 06:01:17;;;;;;;2.30;1.10;;;24.80;68.00;;;;;;5072780;28;20080;-87
2023/07/11 06:03:46;;;;;;;2.67;1.02;;;24.90;68.20;;;;;;5073226;28;20028;-84
2023/07/11 06:06:14;;;;;;;1.05;0.65;;;25.00;68.10;;;;;;5072951;28;20136;-85
2023/07/11 06:08:41;;;;;;;1.48;0.88;;;25.10;68.20;;;;;;5056224;28;20550;-84
2023/07/11 06:11:07;;;;;;;1.42;0.80;;;25.10;67.40;;;;;;5072720;28;20048;-84
2023/07/11 06:13:37;;;;;;;0.50;0.40;;;25.20;67.80;;;;;;5056221;28;20028;-84
2023/07/11 06:16:08;;;;;;;1.25;0.68;;;25.30;67.20;;;;;;5055821;28;20527;-86
2023/07/11 06:18:37;;;;;;;2.10;1.35;;;25.40;66.40;;;;;;5055938;28;20078;-86
2023/07/11 06:21:05;;;;;;;1.50;0.75;;;25.50;65.80;;;;;;5055753;28;20044;-86
2023/07/11 06:23:31;;;;;;;0.90;0.73;;;25.60;65.80;;;;;;5055408;28;20024;-85
2023/07/11 06:25:57;;;;;;;2.10;1.13;;;25.70;65.20;;;;;;5072295;28;20396;-83
2023/07/11 06:28:23;;;;;;;4.05;0.98;;;25.80;64.60;;;;;;5072552;28;20378;-84
2023/07/11 06:30:49;;;;;;;3.03;1.33;;;25.90;64.50;;;;;;5072193;28;20048;-84
2023/07/11 06:33:17;;;;;;;3.17;1.10;;;26.00;64.60;;;;;;5072653;28;20074;-85
2023/07/11 06:35:49;;;;;;;2.85;1.50;;;26.10;64.20;;;;;;5055743;28;20029;-84
2023/07/11 06:38:16;;;;;;;2.00;1.45;;;26.20;63.80;;;;;;5055971;28;20436;-87
2023/07/11 06:41:02;;;;;;;1.55;1.00;;;26.30;63.30;;;;;;5072018;28;20044;-85
2023/07/11 06:43:29;;;;;;;2.08;1.75;;;26.40;63.10;;;;;;5072134;28;20040;-82
2023/07/11 06:45:58;;;;;;;1.70;1.27;;;26.50;62.80;;;;;;5071923;28;20440;-83
2023/07/11 06:48:30;;;;;;;3.50;1.30;;;26.60;62.40;;;;;;5072245;28;20035;-84
2023/07/11 06:51:00;;;;;;;0.85;0.73;;;26.60;62.20;;;;;;5055175;28;20028;-82
2023/07/11 06:53:30;;;;;;;4.82;2.05;;;26.70;61.20;;;;;;5072486;28;20025;-87
2023/07/11 06:55:56;;;;;;;0.98;0.77;;;26.90;60.90;;;;;;5072183;28;20067;-85
2023/07/11 06:58:23;;;;;;;1.90;1.60;;;27.00;61.30;;;;;;5055313;28;20552;-82
2023/07/11 07:01:09;;;;;;;1.70;0.77;;;27.10;60.80;;;;;;5071784;28;20036;-85
2023/07/11 07:03:35;;;;;;;2.47;0.70;;;27.30;60.60;;;;;;5073266;28;20059;-80
2023/07/11 07:06:07;;;;;;;3.53;1.35;;;27.40;60.00;;;;;;5071890;28;20452;-83
2023/07/11 07:08:33;;;;;;;2.00;1.50;;;27.50;59.60;;;;;;5071867;28;20392;-84
2023/07/11 07:11:00;;;;;;;1.35;0.73;;;27.60;59.00;;;;;;5055014;28;20032;-84
2023/07/11 07:13:26;;;;;;;1.55;1.00;;;27.70;59.10;;;;;;5071997;28;20052;-81
2023/07/11 07:15:56;;;;;;;3.00;1.58;;;27.80;58.40;;;;;;5054881;28;20043;-85
2023/07/11 07:18:23;;;;;;;1.98;1.45;;;28.00;58.30;;;;;;5055383;28;20086;-85
2023/07/11 07:20:52;;;;;;;1.35;0.95;;;28.20;57.50;;;;;;5055084;28;20075;-84
2023/07/11 07:23:19;;;;;;;1.83;1.10;;;28.30;57.10;;;;;;5055083;28;20031;-87
2023/07/11 07:26:04;;;;;;;1.23;0.70;;;28.50;56.70;;;;;;5055146;28;20485;-85
2023/07/11 07:28:32;;;;;;;1.92;1.13;;;28.50;56.70;;;;;;5072195;28;20028;-84
2023/07/11 07:30:59;;;;;;;1.65;1.08;;;28.70;56.10;;;;;;5055138;28;20029;-86
2023/07/11 07:33:26;;;;;;;3.13;1.00;;;28.70;55.70;;;;;;5073863;28;20151;-84
2023/07/11 07:36:12;;;;;;;0.95;0.85;;;28.80;55.50;;;;;;5075477;28;20047;-85
2023/07/11 07:38:39;;;;;;;1.43;1.03;;;28.90;54.90;;;;;;5076136;28;20020;-85
2023/07/11 07:41:09;;;;;;;1.83;1.50;;;29.00;55.20;;;;;;5075563;28;20041;-86
2023/07/11 07:43:39;;;;;;;4.18;1.40;;;29.20;54.60;;;;;;5076418;28;20413;-86
2023/07/11 07:46:06;;;;;;;2.03;1.65;;;29.30;54.10;;;;;;5076906;28;20032;-85
2023/07/11 07:48:33;;;;;;;1.42;1.00;;;29.40;53.80;;;;;;5059346;28;20416;-86
2023/07/11 07:51:18;;;;;;;1.20;0.95;;;29.50;52.80;;;;;;5077007;28;20108;-85
2023/07/11 07:53:45;;;;;;;1.23;0.90;;;29.60;53.00;;;;;;5075865;28;20036;-85
2023/07/11 07:56:35;;;;;;;3.08;1.83;;;29.70;52.70;;;;;;5075601;28;20033;-86
2023/07/11 07:59:01;;;;;;;0.90;0.65;;;29.80;51.80;;;;;;5076832;28;20531;-86
2023/07/11 08:01:27;;;;;;;3.08;1.17;;;29.90;51.90;;;;;;5075270;28;20067;-84
2023/07/11 08:03:53;;;;;;;1.45;1.00;;;30.00;51.80;;;;;;5075747;28;20040;-86
2023/07/11 08:06:19;;;;;;;1.63;1.27;;;30.00;50.90;;;;;;5075417;28;20401;-87
2023/07/11 08:09:04;;;;;;;1.38;1.27;;;30.10;50.70;;;;;;5058620;28;20043;-84
2023/07/11 08:11:30;;;;;;;2.47;1.05;;;30.30;50.70;;;;;;5074833;28;20029;-85
2023/07/11 08:13:56;;;;;;;2.08;1.48;;;30.40;50.60;;;;;;5075370;28;20029;-85
2023/07/11 08:16:22;;;;;;;0.70;0.45;;;30.50;50.10;;;;;;5058384;28;20043;-85
2023/07/11 08:18:48;;;;;;;1.83;1.02;;;30.60;49.40;;;;;;5075313;28;20504;-89
2023/07/11 08:21:14;;;;;;;1.30;0.82;;;30.80;50.30;;;;;;5074887;28;20033;-88
2023/07/11 08:23:40;;;;;;;1.80;1.40;;;30.80;49.90;;;;;;5075330;28;20123;-88
2023/07/11 08:26:07;;;;;;;1.58;1.00;;;30.90;49.60;;;;;;5074759;28;20485;-87
2023/07/11 08:28:33;;;;;;;3.28;1.30;;;31.00;50.30;;;;;;5075055;28;20104;-86
2023/07/11 08:30:59;;;;;;;1.60;1.15;;;31.10;49.30;;;;;;5057610;28;20040;-88
2023/07/11 08:33:25;;;;;;;1.15;1.02;;;31.20;49.70;;;;;;5075101;28;20025;-84
2023/07/11 08:35:56;;;;;;;0.98;0.85;;;31.30;49.20;;;;;;5074541;28;20055;-86
2023/07/11 08:38:23;;;;;;;1.58;0.90;;;31.30;49.00;;;;;;5058063;28;20028;-88
2023/07/11 08:40:49;;;;;;;0.95;0.57;;;31.50;48.50;;;;;;5057276;28;20045;-84
2023/07/11 08:43:22;;;;;;;2.03;1.25;;;31.60;48.70;;;;;;5075835;28;20086;-88
2023/07/11 08:46:10;;;;;;;2.15;0.85;;;31.70;48.40;;;;;;5073648;28;20040;-84
2023/07/11 08:48:58;;;;;;;2.75;1.50;;;31.70;47.90;;;;;;5074606;28;20033;-84
2023/07/11 08:51:46;;;;;;;2.72;1.17;;;31.80;47.40;;;;;;5074221;28;20040;-85
2023/07/11 08:54:33;;;;;;;1.25;1.05;;;31.80;47.00;;;;;;5074393;28;20370;-85
2023/07/11 08:57:00;;;;;;;1.63;0.95;;;31.90;46.40;;;;;;5073932;28;20082;-84
2023/07/11 08:59:56;;;;;;;1.88;1.67;;;32.10;46.70;;;;;;5057937;28;20112;-85
2023/07/11 09:03:16;;;;;;;2.47;1.50;;;32.20;46.20;;;;;;5074908;28;20028;-86
2023/07/11 09:06:04;;;;;;;1.98;1.25;;;32.30;46.20;;;;;;5057480;28;21015;-88
2023/07/11 09:08:31;;;;;;;0.80;0.73;;;32.40;45.50;;;;;;5057446;28;20067;-89
2023/07/11 09:11:53;;;;;;;0.93;0.73;;;32.60;44.90;;;;;;5057054;28;20119;-88
2023/07/11 09:14:44;;;;;;;2.45;1.02;;;32.80;44.90;;;;;;5073739;28;20036;-87
2023/07/11 09:17:47;;;;;;;3.00;1.65;;;33.10;44.30;;;;;;5073306;28;20035;-91
2023/07/11 09:20:41;;;;;;;0.85;0.80;;;33.30;43.00;;;;;;5075231;28;20420;-83
2023/07/11 09:23:34;;;;;;;1.27;0.85;;;33.70;43.10;;;;;;5073567;28;20033;-84
2023/07/11 09:26:05;;;;;;;2.38;1.60;;;34.40;42.60;;;;;;5074336;28;20094;-85
2023/07/11 09:28:33;;;;;;;1.42;1.33;;;35.10;41.00;;;;;;5074018;28;20040;-87
2023/07/11 09:31:06;;;;;;;1.23;0.93;;;35.70;39.20;;;;;;5073385;28;20033;-88
2023/07/11 09:33:35;;;;;;;1.58;1.30;;;36.30;38.40;;;;;;5073721;28;20056;-83
2023/07/11 09:36:11;;;;;;;1.25;0.88;;;37.00;38.00;;;;;;5073183;28;20040;-83
2023/07/11 09:39:10;;;;;;;1.27;1.10;;;37.60;36.00;;;;;;5073624;28;20035;-87
2023/07/11 09:41:54;;;;;;;2.58;1.25;;;38.20;35.60;;;;;;5074331;28;20045;-83
2023/07/11 09:44:20;;;;;;;1.70;0.68;;;38.80;34.50;;;;;;5056866;28;20072;-85
2023/07/11 09:46:46;;;;;;;1.02;0.82;;;39.40;34.10;;;;;;5072909;28;20029;-83
2023/07/11 09:49:36;;;;;;;2.15;0.80;;;40.00;31.90;;;;;;5073342;28;20037;-85
2023/07/11 09:52:03;;;;;;;1.15;0.98;;;40.40;30.10;;;;;;5073007;28;20415;-86
2023/07/11 09:54:45;;;;;;;3.47;1.38;;;40.80;29.00;;;;;;5056418;28;20078;-82
2023/07/11 09:57:12;;;;;;;0.88;0.70;;;41.30;29.50;;;;;;5071199;28;20032;-84
2023/07/11 09:59:43;;;;;;;0.82;0.65;;;41.90;28.70;;;;;;5073005;28;20036;-85
2023/07/11 10:02:17;;;;;;;1.73;1.13;;;42.70;28.60;;;;;;5072212;28;20108;-82
2023/07/11 10:04:45;;;;;;;1.92;1.33;;;43.30;27.70;;;;;;5072853;28;20035;-81
2023/07/11 10:07:15;;;;;;;1.10;0.93;;;43.80;25.60;;;;;;5055338;28;20044;-84
2023/07/11 10:10:02;;;;;;;1.45;1.27;;;44.50;26.20;;;;;;5055708;28;20045;-82
2023/07/11 10:12:29;;;;;;;2.42;1.30;;;45.10;24.70;;;;;;5055349;28;20388;-81
2023/07/11 10:15:15;;;;;;;1.65;1.40;;;44.90;22.40;;;;;;5055573;28;20047;-82
2023/07/11 10:17:44;;;;;;;1.63;1.50;;;45.30;23.30;;;;;;5055440;28;20532;-85
2023/07/11 10:20:30;;;;;;;1.55;1.23;;;46.10;23.60;;;;;;5071743;28;20119;-82
2023/07/11 10:23:05;;;;;;;1.95;1.52;;;46.90;23.10;;;;;;5071999;28;20056;-84
2023/07/11 10:25:31;;;;;;;1.20;1.08;;;47.70;22.50;;;;;;5071725;28;20033;-84
2023/07/11 10:28:42;;;;;;;2.10;1.70;;;48.30;22.40;;;;;;5054890;28;20063;-80
2023/07/11 10:31:14;;;;;;;2.10;1.90;;;49.00;22.10;;;;;;5072382;28;20051;-82
2023/07/11 10:34:01;;;;;;;2.40;1.58;;;49.10;19.50;;;;;;5055482;28;20366;-82
2023/07/11 10:36:53;;;;;;;2.15;1.70;;;49.00;19.80;;;;;;5054866;28;20055;-82
2023/07/11 10:40:00;;;;;;;1.88;1.48;;;49.60;19.70;;;;;;5071892;28;20409;-81
2023/07/11 10:42:45;;;;;;;2.33;1.92;;;50.40;19.00;;;;;;5054263;28;20071;-80
2023/07/11 10:45:50;;;;;;;2.85;2.33;;;50.90;18.80;;;;;;5071302;28;20044;-80
2023/07/11 10:48:54;;;;;;;2.72;2.25;;;51.40;17.80;;;;;;5071607;28;20043;-83
2023/07/11 10:51:46;;;;;;;2.50;2.30;;;51.70;16.90;;;;;;5071273;28;20499;-81
2023/07/11 10:54:55;;;;;;;2.35;2.15;;;52.00;17.30;;;;;;5054967;28;20332;-83
2023/07/11 10:57:51;;;;;;;2.85;2.55;;;52.60;16.50;;;;;;5072227;28;20512;-83
2023/07/11 11:00:54;;;;;;;3.60;2.78;;;52.60;16.30;;;;;;5071149;28;20508;-80
2023/07/11 11:03:48;;;;;;;2.90;2.60;;;53.00;16.00;;;;;;5071347;28;20037;-79
2023/07/11 11:06:53;;;;;;;3.13;2.78;;;53.60;15.80;;;;;;5072633;28;20051;-80
2023/07/11 11:09:56;;;;;;;3.40;3.10;;;53.60;14.90;;;;;;5071076;28;20043;-81
2023/07/11 11:13:18;;;;;;;4.35;3.95;;;54.20;15.40;;;;;;5072017;28;20037;-82
2023/07/11 11:16:34;;;;;;;3.88;3.47;;;54.80;15.00;;;;;;5070916;28;20040;-78
2023/07/11 11:19:42;;;;;;;3.97;3.58;;;54.70;14.80;;;;;;5072520;28;20031;-84
2023/07/11 11:22:14;;;;;;;3.60;3.20;;;54.90;14.40;;;;;;5071891;28;20040;-80
2023/07/11 11:24:58;;;;;;;5.70;3.90;;;54.70;14.20;;;;;;5071233;28;20393;-82
2023/07/11 11:28:18;;;;;;;4.10;3.70;;;55.10;14.40;;;;;;5070430;28;20155;-81
2023/07/11 11:30:54;;;;;;;4.95;3.60;;;55.50;14.10;;;;;;5070900;28;20048;-82
2023/07/11 11:33:58;;;;;;;6.07;4.47;;;55.70;13.00;;;;;;5071310;28;20020;-79
2023/07/11 11:37:20;;;;;;;3.35;3.05;;;55.50;12.70;;;;;;5070769;28;20493;-79
2023/07/11 11:40:09;;;;;;;3.95;3.55;;;55.50;12.90;;;;;;5072420;28;20542;-79
2023/07/11 11:42:38;;;;;;;4.95;4.10;;;55.80;12.60;;;;;;5072219;28;20370;-82
2023/07/11 11:45:18;;;;;;;4.28;3.88;;;55.40;12.10;;;;;;5070836;28;20570;-81
2023/07/11 11:47:45;;;;;;;4.60;4.20;;;55.80;12.60;;;;;;5070736;28;20033;-80
2023/07/11 11:50:37;;;;;;;4.97;4.20;;;56.40;13.40;;;;;;5071971;28;20047;-81
2023/07/11 11:53:35;;;;;;;4.60;4.20;;;57.00;13.50;;;;;;5072135;28;20029;-86
2023/07/11 11:56:07;;;;;;;5.53;4.38;;;56.60;11.20;;;;;;5070901;28;20040;-81
2023/07/11 11:58:49;;;;;;;4.75;4.35;;;55.90;11.80;;;;;;5070805;28;20090;-81
2023/07/11 12:01:55;;;;;;;4.97;4.47;;;56.20;12.60;;;;;;5053701;28;20040;-82
2023/07/11 12:05:18;;;;;;;4.72;4.32;;;56.70;11.80;;;;;;5072260;28;20029;-82
2023/07/11 12:07:45;;;;;;;4.53;4.13;;;57.20;12.30;;;;;;5071866;28;20485;-81
2023/07/11 12:10:19;;;;;;;7.97;5.95;;;57.60;11.80;;;;;;5053507;28;20121;-81
2023/07/11 12:13:24;;;;;;;5.32;4.93;;;57.50;11.70;;;;;;5070648;28;20070;-81
2023/07/11 12:15:53;;;;;;;6.40;5.90;;;57.80;11.90;;;;;;5071810;28;20098;-81
2023/07/11 12:18:41;;;;;;;6.25;5.75;;;58.40;12.20;;;;;;5070666;28;20055;-80
2023/07/11 12:21:45;;;;;;;6.43;5.90;;;58.50;11.20;;;;;;5073021;28;20040;-80
2023/07/11 12:24:58;;;;;;;5.18;4.78;;;58.70;10.70;;;;;;5057809;28;20503;-80
2023/07/11 12:27:24;;;;;;;6.10;5.60;;;58.50;11.00;;;;;;5073715;28;20108;-79
2023/07/11 12:29:52;;;;;;;7.15;6.65;;;59.00;11.90;;;;;;5075600;28;20107;-81
2023/07/11 12:32:33;;;;;;;6.25;5.75;;;58.90;11.00;;;;;;5056859;28;20028;-80
2023/07/11 12:35:05;;;;;;;7.15;6.55;;;59.10;11.30;;;;;;5074130;28;20397;-83
2023/07/11 12:37:46;;;;;;;6.55;6.05;;;58.80;10.40;;;;;;5073837;28;20035;-80
2023/07/11 12:40:45;;;;;;;6.97;6.47;;;58.60;10.50;;;;;;5073724;28;20046;-82
2023/07/11 12:43:31;;;;;;;6.53;5.97;;;58.30;10.30;;;;;;5073888;28;20505;-82
2023/07/11 12:46:02;;;;;;;7.03;6.53;;;58.40;10.80;;;;;;5073441;28;20087;-82
2023/07/11 12:48:37;;;;;;;6.93;6.43;;;58.50;11.00;;;;;;5057075;28;20043;-83
2023/07/11 12:51:07;;;;;;;6.68;6.18;;;58.80;10.90;;;;;;5056764;28;20044;-82
2023/07/11 12:54:16;;;;;;;6.38;5.88;;;58.80;10.00;;;;;;5070752;28;20123;-82
2023/07/11 12:57:01;;;;;;;6.60;6.10;;;59.10;10.80;;;;;;5074937;28;20025;-82
2023/07/11 12:59:30;;;;;;;6.75;6.25;;;59.40;10.70;;;;;;5073765;28;20224;-82
2023/07/11 13:02:20;;;;;;;6.38;5.88;;;58.30;9.90;;;;;;5072983;28;20079;-80
2023/07/11 13:05:11;;;;;;;5.05;4.65;;;58.40;10.70;;;;;;5056900;28;20090;-82
2023/07/11 13:07:37;;;;;;;6.03;5.53;;;58.80;10.40;;;;;;5073458;28;20099;-80
2023/07/11 13:10:35;;;;;;;5.85;5.38;;;59.10;10.90;;;;;;5074855;28;20036;-79
2023/07/11 13:13:01;;;;;;;5.32;4.82;;;59.10;10.50;;;;;;5073453;28;20054;-82
2023/07/11 13:15:27;;;;;;;6.00;5.50;;;58.70;10.40;;;;;;5056142;28;20036;-81
2023/07/11 13:17:55;;;;;;;5.93;5.45;;;58.00;10.40;;;;;;5073289;28;20082;-81
2023/07/11 13:20:28;;;;;;;4.85;4.45;;;57.70;9.90;;;;;;5056226;28;20067;-81
2023/07/11 13:22:54;;;;;;;4.70;4.30;;;57.70;10.40;;;;;;5056827;28;20067;-81
2023/07/11 13:25:39;;;;;;;4.88;4.47;;;57.70;10.50;;;;;;5056126;28;20033;-81
2023/07/11 13:28:21;;;;;;;4.65;4.22;;;57.30;11.30;;;;;;5072697;28;20078;-79
2023/07/11 13:30:58;;;;;;;3.65;3.35;;;56.60;11.30;;;;;;5072586;28;20102;-81